Time;durP1;ratioP1;P1;durP2;ratioP2;P2;SDS_P1;SDS_P2;PMS_P1;PMS_P2;Temp;Humidity;BMP_temperature;BMP_pressure;BME280_temperature;BME280_humidity;BME280_pressure;Samples;Min_cycle;Max_cycle;Signal;HPM_P1;HPM_P2
2022/02/04 00:04:43;;;;;;;;;;;;;;;;;;5095739;28;19916;-76
2022/02/04 00:21:24;;;;;;;;;;;;;;;;;;5090215;28;19963;-76
2022/02/04 00:23:50;;;;;;;;;;;;;;;;;;5095589;28;20014;-76
2022/02/04 00:26:26;;;;;;;;;;;;;;;;;;5095199;28;19938;-76
2022/02/04 00:29:09;;;;;;;;;;;;;;;;;;5093761;28;19924;-76
2022/02/04 00:31:39;;;;;;;;;;;;;;;;;;5093987;28;19916;-76
2022/02/04 00:34:09;;;;;;;;;;;;;;;;;;5095074;28;19923;-76
2022/02/04 00:39:05;;;;;;;;;;;;;;;;;;5094688;28;20251;-76
2022/02/04 00:41:34;;;;;;;;;;;;;;;;;;5095078;28;19912;-76
2022/02/04 00:44:01;;;;;;;;;;;;;;;;;;5093825;28;19924;-76
2022/02/04 00:46:34;;;;;;;;;;;;;;;;;;5094839;28;19923;-76
2022/02/04 00:49:10;;;;;;;;;;;;;;;;;;5094547;28;19920;-76
2022/02/04 00:51:47;;;;;;;;;;;;;;;;;;5093532;28;19919;-76
2022/02/04 00:54:26;;;;;;;;;;;;;;;;;;5093455;28;19923;-76
2022/02/04 01:26:30;;;;;;;;;;;;;;;;;;5094304;28;19922;-76
2022/02/04 01:28:55;;;;;;;;;;;;;;;;;;5094029;28;19924;-76
2022/02/04 01:31:22;;;;;;;;;;;;;;;;;;5094114;28;19969;-76
2022/02/04 01:33:49;;;;;;;;;;;;;;;;;;5094004;28;19916;-76
2022/02/04 01:36:15;;;;;;;;;;;;;;;;;;5093907;28;19916;-76
2022/02/04 01:38:40;;;;;;;;;;;;;;;;;;5092881;28;19976;-76
2022/02/04 01:41:07;;;;;;;;;;;;;;;;;;5093707;28;19966;-76
2022/02/04 01:43:33;;;;;;;;;;;;;;;;;;5094025;28;19916;-76
2022/02/04 01:46:01;;;;;;;;;;;;;;;;;;5093955;28;19923;-75
2022/02/04 01:48:27;;;;;;;;;;;;;;;;;;5093975;28;19927;-76
2022/02/04 01:50:54;;;;;;;;;;;;;;;;;;5093126;28;21384;-75
2022/02/04 01:53:21;;;;;;;;;;;;;;;;;;5092429;28;19942;-76
2022/02/04 01:55:47;;;;;;;;;;;;;;;;;;5092481;28;20361;-76
2022/02/04 01:58:13;;;;;;;;;;;;;;;;;;5093791;28;19916;-76
2022/02/04 02:00:39;;;;;;;;;;;;;;;;;;5093453;28;19931;-75
2022/02/04 02:03:05;;;;;;;;;;;;;;;;;;5093837;28;19916;-76
2022/02/04 02:05:30;;;;;;;;;;;;;;;;;;5099974;28;19919;-76
2022/02/04 02:08:03;;;;;;;;;;;;;;;;;;5114201;28;20408;-76
2022/02/04 02:10:30;;;;;;;;;;;;;;;;;;5113903;28;19920;-76
2022/02/04 02:13:27;;;;;;;;;;;;;;;;;;5114036;28;19963;-77
2022/02/04 02:45:33;;;;;;;;;;;;;;;;;;5093298;28;20406;-76
2022/02/04 02:48:31;;;;;;;;;;;;;;;;;;5093369;28;19916;-76
2022/02/04 02:56:29;;;;;;;;;;;;;;;;;;5097143;28;19916;-76
2022/02/04 02:58:57;;;;;;;;;;;;;;;;;;5096642;28;19916;-77
2022/02/04 03:01:22;;;;;;;;;;;;;;;;;;5095843;28;19916;-76
2022/02/04 03:03:53;;;;;;;;;;;;;;;;;;5095746;28;19984;-76
2022/02/04 03:06:18;;;;;;;;;;;;;;;;;;5096746;28;19916;-76
2022/02/04 03:08:44;;;;;;;;;;;;;;;;;;5096693;28;19916;-76
2022/02/04 03:11:09;;;;;;;;;;;;;;;;;;5096829;28;20061;-76
2022/02/04 03:13:35;;;;;;;;;;;;;;;;;;5096678;28;19923;-76
2022/02/04 03:16:04;;;;;;;;;;;;;;;;;;5096952;28;19920;-76
2022/02/04 03:18:36;;;;;;;;;;;;;;;;;;5095672;28;19961;-76
2022/02/04 03:21:08;;;;;;;;;;;;;;;;;;5096081;28;20010;-76
2022/02/04 03:23:37;;;;;;;;;;;;;;;;;;5096532;28;19962;-76
2022/02/04 03:26:06;;;;;;;;;;;;;;;;;;5096723;28;19920;-76
2022/02/04 03:28:32;;;;;;;;;;;;;;;;;;5095493;28;19916;-76
2022/02/04 03:30:59;;;;;;;;;;;;;;;;;;5096345;28;19920;-76
2022/02/04 03:33:27;;;;;;;;;;;;;;;;;;5096453;28;19916;-76
2022/02/04 03:35:53;;;;;;;;;;;;;;;;;;5096056;28;19916;-76
2022/02/04 03:38:18;;;;;;;;;;;;;;;;;;5095136;28;19942;-76
2022/02/04 03:40:43;;;;;;;;;;;;;;;;;;5095905;28;20374;-76
2022/02/04 03:43:08;;;;;;;;;;;;;;;;;;5096153;28;19916;-76
2022/02/04 03:45:34;;;;;;;;;;;;;;;;;;5096148;28;19916;-76
2022/02/04 03:48:00;;;;;;;;;;;;;;;;;;5095711;28;19916;-76
2022/02/04 03:50:25;;;;;;;;;;;;;;;;;;5095882;28;20271;-76
2022/02/04 03:52:51;;;;;;;;;;;;;;;;;;5096486;28;19938;-77
2022/02/04 03:55:16;;;;;;;;;;;;;;;;;;5096489;28;20008;-76
2022/02/04 03:57:42;;;;;;;;;;;;;;;;;;5095647;28;19923;-76
2022/02/04 04:00:09;;;;;;;;;;;;;;;;;;5094411;28;20255;-77
2022/02/04 04:02:41;;;;;;;;;;;;;;;;;;5095726;28;20271;-74
2022/02/04 04:05:07;;;;;;;;;;;;;;;;;;5095471;28;19922;-74
2022/02/04 04:07:34;;;;;;;;;;;;;;;;;;5095742;28;19955;-74
2022/02/04 04:10:07;;;;;;;;;;;;;;;;;;5095708;28;19920;-74
2022/02/04 04:12:33;;;;;;;;;;;;;;;;;;5094495;28;19916;-74
2022/02/04 04:15:04;;;;;;;;;;;;;;;;;;5095665;28;19923;-74
2022/02/04 04:17:37;;;;;;;;;;;;;;;;;;5095424;28;19923;-74
2022/02/04 04:20:02;;;;;;;;;;;;;;;;;;5094211;28;19924;-74
2022/02/04 04:22:28;;;;;;;;;;;;;;;;;;5095402;28;20011;-74
2022/02/04 04:24:53;;;;;;;;;;;;;;;;;;5095328;28;19954;-74
2022/02/04 04:27:18;;;;;;;;;;;;;;;;;;5095433;28;19912;-74
2022/02/04 04:29:44;;;;;;;;;;;;;;;;;;5095126;28;19927;-74
2022/02/04 04:32:09;;;;;;;;;;;;;;;;;;5095381;28;19923;-74
2022/02/04 04:34:35;;;;;;;;;;;;;;;;;;5095120;28;19922;-74
2022/02/04 04:37:01;;;;;;;;;;;;;;;;;;5095058;28;19919;-74
2022/02/04 04:39:32;;;;;;;;;;;;;;;;;;5095059;28;20399;-74
2022/02/04 04:42:13;;;;;;;;;;;;;;;;;;5095120;28;19923;-74
2022/02/04 05:25:59;;;;;;;;;;;;;;;;;;5094880;28;19967;-74
2022/02/04 05:28:55;;;;;;;;;;;;;;;;;;5094313;28;19969;-74
2022/02/04 05:31:20;;;;;;;;;;;;;;;;;;5094308;28;19920;-74
2022/02/04 05:33:45;;;;;;;;;;;;;;;;;;5094265;28;19930;-74
2022/02/04 05:36:11;;;;;;;;;;;;;;;;;;5094031;28;19916;-74
2022/02/04 05:38:38;;;;;;;;;;;;;;;;;;5094232;28;20362;-74
2022/02/04 05:41:05;;;;;;;;;;;;;;;;;;5093002;28;19916;-74
2022/02/04 05:43:34;;;;;;;;;;;;;;;;;;5092614;28;19920;-74
2022/02/04 05:46:04;;;;;;;;;;;;;;;;;;5094021;28;20366;-74
2022/02/04 05:48:32;;;;;;;;;;;;;;;;;;5093412;28;19941;-73
2022/02/04 05:53:30;;;;;;;;;;;;;;;;;;5093826;28;20401;-73
2022/02/04 05:56:08;;;;;;;;;;;;;;;;;;5093615;28;20324;-74
2022/02/04 05:59:14;;;;;;;;;;;;;;;;;;5092801;28;19923;-73
2022/02/04 06:01:39;;;;;;;;;;;;;;;;;;5091612;28;19916;-73
2022/02/04 06:12:21;;;;;;;;;;;;;;;;;;5093750;28;19919;-74
2022/02/04 06:15:13;;;;;;;;;;;;;;;;;;5093551;28;19916;-73
2022/02/04 06:23:07;;;;;;;;;;;;;;;;;;5093709;28;19916;-74
2022/02/04 06:25:32;;;;;;;;;;;;;;;;;;5093465;28;19919;-73
2022/02/04 06:27:58;;;;;;;;;;;;;;;;;;5097339;28;20274;-73
2022/02/04 06:30:23;;;;;;;;;;;;;;;;;;5097264;28;19920;-73
2022/02/04 06:32:48;;;;;;;;;;;;;;;;;;5097606;28;19983;-73
2022/02/04 06:35:14;;;;;;;;;;;;;;;;;;5097408;28;20357;-74
2022/02/04 06:37:40;;;;;;;;;;;;;;;;;;5097507;28;19942;-73
2022/02/04 06:40:06;;;;;;;;;;;;;;;;;;5096931;28;19919;-73
2022/02/04 06:42:31;;;;;;;;;;;;;;;;;;5097127;28;19920;-73
2022/02/04 06:44:59;;;;;;;;;;;;;;;;;;5097140;28;20333;-73
2022/02/04 06:47:25;;;;;;;;;;;;;;;;;;5096110;28;20012;-73
2022/02/04 06:49:50;;;;;;;;;;;;;;;;;;5096859;28;19923;-73
2022/02/04 06:52:16;;;;;;;;;;;;;;;;;;5097065;28;19969;-73
2022/02/04 06:54:42;;;;;;;;;;;;;;;;;;5097353;28;19916;-73
2022/02/04 06:57:07;;;;;;;;;;;;;;;;;;5097157;28;19919;-73
2022/02/04 06:59:34;;;;;;;;;;;;;;;;;;5095909;28;19938;-73
2022/02/04 07:01:59;;;;;;;;;;;;;;;;;;5096958;28;19916;-73
2022/02/04 07:04:29;;;;;;;;;;;;;;;;;;5095687;28;20251;-73
2022/02/04 07:06:57;;;;;;;;;;;;;;;;;;5096843;28;20388;-73
2022/02/04 07:09:43;;;;;;;;;;;;;;;;;;5096700;28;19920;-73
2022/02/04 07:12:23;;;;;;;;;;;;;;;;;;5095724;28;19920;-73
2022/02/04 07:19:58;;;;;;;;;;;;;;;;;;5096730;28;19942;-74
2022/02/04 07:22:26;;;;;;;;;;;;;;;;;;5096767;28;19916;-74
2022/02/04 07:24:56;;;;;;;;;;;;;;;;;;5096642;28;20002;-74
2022/02/04 07:27:25;;;;;;;;;;;;;;;;;;5095196;28;19923;-74
2022/02/04 07:29:53;;;;;;;;;;;;;;;;;;5096107;28;19947;-74
2022/02/04 07:32:28;;;;;;;;;;;;;;;;;;5096330;28;19916;-74
2022/02/04 07:42:52;;;;;;;;;;;;;;;;;;5096293;28;19916;-73
2022/02/04 07:45:18;;;;;;;;;;;;;;;;;;5096171;28;19966;-73
2022/02/04 07:47:43;;;;;;;;;;;;;;;;;;5096102;28;20014;-73
2022/02/04 07:50:08;;;;;;;;;;;;;;;;;;5095762;28;19928;-73
2022/02/04 07:52:34;;;;;;;;;;;;;;;;;;5096153;28;19916;-74
2022/02/04 07:54:59;;;;;;;;;;;;;;;;;;5096069;28;20006;-74
2022/02/04 07:57:25;;;;;;;;;;;;;;;;;;5095639;28;19920;-74
2022/02/04 07:59:50;;;;;;;;;;;;;;;;;;5095494;28;19973;-76
2022/02/04 08:02:16;;;;;;;;;;;;;;;;;;5096676;28;19920;-77
2022/02/04 08:04:44;;;;;;;;;;;;;;;;;;5095112;28;19920;-79
2022/02/04 08:07:14;;;;;;;;;;;;;;;;;;5098109;28;19916;-78
2022/02/04 08:12:41;;;;;;;;;;;;;;;;;;5096489;28;19916;-77
2022/02/04 08:23:33;;;;;;;;;;;;;;;;;;5098593;28;19963;-82
2022/02/04 08:37:33;;;;;;;;;;;;;;;;;;5020514;28;20508;-79
2022/02/04 08:55:58;;;;;;;;;;;;;;;;;;5101819;28;19927;-77
2022/02/04 09:06:13;;;;;;;;;;;;;;;;;;5094439;28;20289;-76
2022/02/04 09:08:43;;;;;;;;;;;;;;;;;;5094201;28;19982;-76
2022/02/04 09:11:14;;;;;;;;;;;;;;;;;;5093923;28;19991;-76
2022/02/04 09:19:16;;;;;;;;;;;;;;;;;;5093202;28;19920;-78
2022/02/04 09:24:11;;;;;;;;;;;;;;;;;;5092516;28;19924;-76
2022/02/04 09:26:37;;;;;;;;;;;;;;;;;;5092131;28;20009;-77
2022/02/04 09:29:03;;;;;;;;;;;;;;;;;;5092516;28;19916;-77
2022/02/04 09:31:29;;;;;;;;;;;;;;;;;;5091610;28;19923;-76
2022/02/04 09:33:54;;;;;;;;;;;;;;;;;;5093893;28;19916;-76
2022/02/04 09:36:19;;;;;;;;;;;;;;;;;;5093014;28;19916;-76
2022/02/04 09:38:45;;;;;;;;;;;;;;;;;;5093779;28;19912;-76
2022/02/04 09:41:10;;;;;;;;;;;;;;;;;;5092290;28;19974;-76
2022/02/04 09:43:35;;;;;;;;;;;;;;;;;;5093570;28;19923;-77
2022/02/04 09:46:01;;;;;;;;;;;;;;;;;;5093588;28;19942;-76
2022/02/04 09:48:28;;;;;;;;;;;;;;;;;;5091148;28;19989;-75
2022/02/04 09:50:55;;;;;;;;;;;;;;;;;;5093230;28;19927;-76
2022/02/04 10:04:53;;;;;;;;;;;;;;;;;;5091331;28;19962;-76
2022/02/04 10:15:43;;;;;;;;;;;;;;;;;;5092275;28;20004;-76
2022/02/04 10:18:13;;;;;;;;;;;;;;;;;;5092290;28;19966;-76
2022/02/04 10:20:39;;;;;;;;;;;;;;;;;;5091639;28;19916;-76
2022/02/04 10:23:04;;;;;;;;;;;;;;;;;;5094318;28;19916;-77
2022/02/04 10:25:31;;;;;;;;;;;;;;;;;;5094238;28;19916;-76
2022/02/04 10:27:56;;;;;;;;;;;;;;;;;;5092714;28;19947;-76
2022/02/04 10:30:21;;;;;;;;;;;;;;;;;;5092445;28;19971;-76
2022/02/04 10:32:50;;;;;;;;;;;;;;;;;;5092282;28;19986;-76
2022/02/04 10:35:21;;;;;;;;;;;;;;;;;;5093376;28;19969;-77
2022/02/04 10:38:11;;;;;;;;;;;;;;;;;;5092407;28;19956;-76
2022/02/04 10:41:15;;;;;;;;;;;;;;;;;;5055057;28;19916;-77
2022/02/04 10:44:00;;;;;;;;;;;;;;;;;;5074244;28;19927;-76
2022/02/04 10:46:39;;;;;;;;;;;;;;;;;;5091686;28;19916;-76
2022/02/04 10:49:30;;;;;;;;;;;;;;;;;;5093740;28;19920;-78
2022/02/04 10:52:43;;;;;;;;;;;;;;;;;;5081639;28;19924;-78
2022/02/04 10:55:43;;;;;;;;;;;;;;;;;;5093439;28;19923;-77
2022/02/04 11:03:26;;;;;;;;;;;;;;;;;;5099513;28;19916;-78
2022/02/04 11:06:08;;;;;;;;;;;;;;;;;;5098656;28;19958;-78
2022/02/04 11:11:53;;;;;;;;;;;;;;;;;;5116480;28;19923;-81
2022/02/04 11:31:08;;;;;;;;;;;;;;;;;;5076177;28;19916;-76
2022/02/04 11:33:52;;;;;;;;;;;;;;;;;;5090082;28;19942;-76
2022/02/04 11:36:39;;;;;;;;;;;;;;;;;;5082176;28;20423;-76
2022/02/04 11:43:46;;;;;;;;;;;;;;;;;;5097152;28;19952;-77
2022/02/04 11:53:34;;;;;;;;;;;;;;;;;;5096141;28;20491;-76
2022/02/04 11:56:00;;;;;;;;;;;;;;;;;;5094440;28;20453;-76
2022/02/04 11:58:25;;;;;;;;;;;;;;;;;;5095682;28;20002;-76
2022/02/04 12:01:02;;;;;;;;;;;;;;;;;;5095197;28;19920;-76
2022/02/04 12:03:29;;;;;;;;;;;;;;;;;;5096389;28;19916;-80
2022/02/04 12:05:55;;;;;;;;;;;;;;;;;;5095306;28;20414;-76
2022/02/04 12:08:21;;;;;;;;;;;;;;;;;;5095921;28;19916;-76
2022/02/04 12:10:48;;;;;;;;;;;;;;;;;;5095436;28;19920;-76
2022/02/04 12:13:14;;;;;;;;;;;;;;;;;;5077537;28;19916;-76
2022/02/04 12:15:42;;;;;;;;;;;;;;;;;;5095695;28;20011;-76
2022/02/04 12:18:09;;;;;;;;;;;;;;;;;;5095319;28;19923;-76
2022/02/04 12:23:27;;;;;;;;;;;;;;;;;;5094493;28;19919;-77
2022/02/04 12:25:53;;;;;;;;;;;;;;;;;;5093977;28;19919;-76
2022/02/04 12:28:37;;;;;;;;;;;;;;;;;;5095454;28;19919;-76
2022/02/04 12:31:06;;;;;;;;;;;;;;;;;;5095489;28;19924;-76
2022/02/04 12:33:37;;;;;;;;;;;;;;;;;;5095110;28;20010;-76
2022/02/04 12:36:03;;;;;;;;;;;;;;;;;;5095353;28;19959;-76
2022/02/04 12:38:28;;;;;;;;;;;;;;;;;;5095320;28;20001;-76
2022/02/04 12:40:59;;;;;;;;;;;;;;;;;;5094800;28;20019;-76
2022/02/04 12:43:25;;;;;;;;;;;;;;;;;;5095252;28;19955;-75
2022/02/04 12:45:50;;;;;;;;;;;;;;;;;;5095022;28;20486;-75
2022/02/04 12:48:18;;;;;;;;;;;;;;;;;;5093550;28;20438;-76
2022/02/04 12:50:50;;;;;;;;;;;;;;;;;;5094828;28;19920;-75
2022/02/04 12:53:26;;;;;;;;;;;;;;;;;;5094990;28;19962;-76
2022/02/04 12:56:04;;;;;;;;;;;;;;;;;;5094800;28;19920;-76
2022/02/04 12:58:44;;;;;;;;;;;;;;;;;;5092092;28;19916;-76
2022/02/04 13:10:02;;;;;;;;;;;;;;;;;;5094438;28;20369;-76
2022/02/04 13:12:19;;;;;;;;;;;;;;;;;;5091461;28;19916;-76
2022/02/04 13:14:48;;;;;;;;;;;;;;;;;;5094578;28;19968;-75
2022/02/04 13:17:33;;;;;;;;;;;;;;;;;;5094248;28;19916;-76
2022/02/04 13:20:00;;;;;;;;;;;;;;;;;;5094291;28;19916;-76
2022/02/04 13:22:25;;;;;;;;;;;;;;;;;;5094412;28;19916;-76
2022/02/04 13:25:23;;;;;;;;;;;;;;;;;;5093673;28;20254;-76
2022/02/04 13:27:59;;;;;;;;;;;;;;;;;;5059825;28;19923;-76
2022/02/04 13:30:24;;;;;;;;;;;;;;;;;;5092910;28;19924;-76
2022/02/04 13:32:50;;;;;;;;;;;;;;;;;;5094183;28;20308;-75
2022/02/04 13:35:40;;;;;;;;;;;;;;;;;;5092747;28;19916;-75
2022/02/04 13:38:19;;;;;;;;;;;;;;;;;;5094055;28;19923;-76
2022/02/04 13:41:04;;;;;;;;;;;;;;;;;;5094063;28;19916;-76
2022/02/04 13:46:32;;;;;;;;;;;;;;;;;;5094036;28;19958;-75
2022/02/04 13:49:09;;;;;;;;;;;;;;;;;;5093623;28;19984;-75
2022/02/04 13:51:47;;;;;;;;;;;;;;;;;;5092705;28;19920;-76
2022/02/04 13:57:19;;;;;;;;;;;;;;;;;;5093851;28;19916;-76
2022/02/04 14:00:01;;;;;;;;;;;;;;;;;;5093940;28;20007;-75
2022/02/04 14:02:33;;;;;;;;;;;;;;;;;;5093397;28;19916;-75
2022/02/04 14:05:02;;;;;;;;;;;;;;;;;;5092795;28;20380;-75
2022/02/04 14:07:35;;;;;;;;;;;;;;;;;;5093584;28;19919;-75
2022/02/04 14:10:13;;;;;;;;;;;;;;;;;;5093729;28;19920;-75
2022/02/04 14:12:38;;;;;;;;;;;;;;;;;;5092370;28;19923;-76
2022/02/04 14:15:04;;;;;;;;;;;;;;;;;;5093486;28;19916;-76
2022/02/04 14:17:31;;;;;;;;;;;;;;;;;;5092913;28;19960;-76
2022/02/04 14:19:57;;;;;;;;;;;;;;;;;;5093826;28;20012;-76
2022/02/04 14:22:22;;;;;;;;;;;;;;;;;;5094267;28;19916;-75
2022/02/04 14:24:48;;;;;;;;;;;;;;;;;;5093405;28;19916;-75
2022/02/04 14:27:14;;;;;;;;;;;;;;;;;;5090950;28;20404;-75
2022/02/04 14:29:58;;;;;;;;;;;;;;;;;;5092822;28;19920;-76
2022/02/04 14:32:28;;;;;;;;;;;;;;;;;;5092805;28;20430;-76
2022/02/04 14:35:11;;;;;;;;;;;;;;;;;;5092373;28;19916;-76
2022/02/04 14:37:57;;;;;;;;;;;;;;;;;;5093750;28;19916;-75
2022/02/04 14:54:04;;;;;;;;;;;;;;;;;;5097172;28;19916;-75
2022/02/04 15:01:57;;;;;;;;;;;;;;;;;;5085378;28;20011;-76
2022/02/04 15:04:36;;;;;;;;;;;;;;;;;;5096149;28;19961;-76
2022/02/04 15:07:03;;;;;;;;;;;;;;;;;;5095769;28;19965;-76
2022/02/04 15:09:30;;;;;;;;;;;;;;;;;;5094121;28;19973;-79
2022/02/04 15:11:55;;;;;;;;;;;;;;;;;;5082857;28;19924;-79
2022/02/04 15:14:21;;;;;;;;;;;;;;;;;;5099681;28;19935;-79
2022/02/04 15:16:46;;;;;;;;;;;;;;;;;;5097197;28;19961;-80
2022/02/04 15:19:11;;;;;;;;;;;;;;;;;;5101030;28;20411;-79
2022/02/04 15:21:40;;;;;;;;;;;;;;;;;;5078863;28;20403;-79
2022/02/04 15:24:07;;;;;;;;;;;;;;;;;;5084483;28;19917;-80
2022/02/04 15:26:32;;;;;;;;;;;;;;;;;;5081066;28;20600;-82
2022/02/04 15:29:02;;;;;;;;;;;;;;;;;;5080980;28;19916;-82
2022/02/04 15:31:47;;;;;;;;;;;;;;;;;;5084296;28;20015;-83
2022/02/04 15:34:15;;;;;;;;;;;;;;;;;;5099426;28;19916;-73
2022/02/04 15:36:42;;;;;;;;;;;;;;;;;;5096251;28;19916;-73
2022/02/04 15:39:11;;;;;;;;;;;;;;;;;;5096395;28;19924;-74
2022/02/04 15:41:38;;;;;;;;;;;;;;;;;;5095062;28;19916;-73
2022/02/04 15:49:25;;;;;;;;;;;;;;;;;;5095903;28;19923;-72
2022/02/04 15:57:17;;;;;;;;;;;;;;;;;;5096009;28;19955;-73
2022/02/04 15:59:59;;;;;;;;;;;;;;;;;;5093992;28;20014;-73
2022/02/04 16:05:13;;;;;;;;;;;;;;;;;;5095891;28;19927;-73
2022/02/04 16:07:39;;;;;;;;;;;;;;;;;;5094579;28;19916;-73
2022/02/04 16:12:56;;;;;;;;;;;;;;;;;;5094292;28;19920;-73
2022/02/04 16:15:36;;;;;;;;;;;;;;;;;;5094492;28;20010;-73
2022/02/04 16:18:07;;;;;;;;;;;;;;;;;;5091821;28;19965;-73
2022/02/04 16:23:11;;;;;;;;;;;;;;;;;;5095593;28;19974;-72
2022/02/04 16:31:02;;;;;;;;;;;;;;;;;;5090271;28;19973;-72
2022/02/04 16:33:27;;;;;;;;;;;;;;;;;;5073919;28;19920;-72
2022/02/04 16:36:01;;;;;;;;;;;;;;;;;;5075051;28;19923;-74
2022/02/04 16:38:26;;;;;;;;;;;;;;;;;;5080431;28;19916;-74
2022/02/04 16:40:56;;;;;;;;;;;;;;;;;;5094882;28;20011;-74
2022/02/04 16:43:21;;;;;;;;;;;;;;;;;;5092783;28;19963;-74
2022/02/04 16:45:46;;;;;;;;;;;;;;;;;;5094890;28;19966;-74
2022/02/04 16:48:12;;;;;;;;;;;;;;;;;;5095047;28;19916;-74
2022/02/04 16:50:38;;;;;;;;;;;;;;;;;;5094715;28;19943;-74
2022/02/04 16:53:03;;;;;;;;;;;;;;;;;;5095063;28;19916;-74
2022/02/04 16:55:28;;;;;;;;;;;;;;;;;;5094994;28;19916;-74
2022/02/04 16:57:54;;;;;;;;;;;;;;;;;;5095006;28;19961;-74
2022/02/04 17:00:21;;;;;;;;;;;;;;;;;;5094613;28;20361;-75
2022/02/04 17:02:47;;;;;;;;;;;;;;;;;;5093836;28;19916;-74
2022/02/04 17:05:13;;;;;;;;;;;;;;;;;;5094784;28;20290;-74
2022/02/04 17:07:39;;;;;;;;;;;;;;;;;;5093555;28;19916;-75
2022/02/04 17:10:07;;;;;;;;;;;;;;;;;;5093050;28;19927;-75
2022/02/04 17:12:41;;;;;;;;;;;;;;;;;;5093235;28;19916;-75
2022/02/04 17:15:06;;;;;;;;;;;;;;;;;;5094541;28;20277;-75
2022/02/04 17:17:32;;;;;;;;;;;;;;;;;;5094472;28;19916;-74
2022/02/04 17:20:07;;;;;;;;;;;;;;;;;;5094502;28;19923;-74
2022/02/04 17:22:35;;;;;;;;;;;;;;;;;;5076238;28;19916;-74
2022/02/04 17:25:02;;;;;;;;;;;;;;;;;;5094510;28;19923;-74
2022/02/04 17:27:28;;;;;;;;;;;;;;;;;;5094340;28;20370;-74
2022/02/04 17:29:53;;;;;;;;;;;;;;;;;;5094095;28;19920;-74
2022/02/04 17:32:18;;;;;;;;;;;;;;;;;;5093532;28;19931;-74
2022/02/04 17:34:44;;;;;;;;;;;;;;;;;;5094351;28;19916;-74
2022/02/04 17:37:10;;;;;;;;;;;;;;;;;;5094115;28;20335;-74
2022/02/04 17:39:36;;;;;;;;;;;;;;;;;;5093887;28;19958;-74
2022/02/04 17:42:02;;;;;;;;;;;;;;;;;;5093990;28;19927;-75
2022/02/04 17:44:27;;;;;;;;;;;;;;;;;;5093988;28;19916;-75
2022/02/04 17:46:53;;;;;;;;;;;;;;;;;;5094147;28;20265;-75
2022/02/04 17:52:20;;;;;;;;;;;;;;;;;;5094071;28;19946;-75
2022/02/04 17:55:00;;;;;;;;;;;;;;;;;;5093738;28;19916;-75
2022/02/04 17:57:37;;;;;;;;;;;;;;;;;;5093901;28;19977;-75
2022/02/04 18:08:06;;;;;;;;;;;;;;;;;;5092810;28;21480;-75
2022/02/04 18:10:32;;;;;;;;;;;;;;;;;;5093376;28;19967;-75
2022/02/04 18:12:57;;;;;;;;;;;;;;;;;;5093767;28;19967;-75
2022/02/04 18:15:22;;;;;;;;;;;;;;;;;;5092363;28;19923;-75
2022/02/04 18:17:48;;;;;;;;;;;;;;;;;;5093617;28;20381;-75
2022/02/04 18:20:14;;;;;;;;;;;;;;;;;;5093555;28;19924;-74
2022/02/04 18:22:39;;;;;;;;;;;;;;;;;;5094244;28;19912;-75
2022/02/04 18:25:05;;;;;;;;;;;;;;;;;;5097801;28;20301;-75
2022/02/04 18:27:31;;;;;;;;;;;;;;;;;;5096935;28;20011;-75
2022/02/04 18:29:58;;;;;;;;;;;;;;;;;;5096551;28;20086;-75
2022/02/04 18:32:24;;;;;;;;;;;;;;;;;;5097511;28;19927;-74
2022/02/04 18:34:53;;;;;;;;;;;;;;;;;;5097532;28;19923;-74
2022/02/04 18:37:20;;;;;;;;;;;;;;;;;;5097766;28;19916;-74
2022/02/04 18:45:00;;;;;;;;;;;;;;;;;;5097678;28;19923;-73
2022/02/04 18:47:36;;;;;;;;;;;;;;;;;;5097432;28;20374;-73
2022/02/04 18:50:26;;;;;;;;;;;;;;;;;;5096605;28;19930;-74
2022/02/04 18:58:15;;;;;;;;;;;;;;;;;;5097339;28;19955;-75
2022/02/04 19:00:41;;;;;;;;;;;;;;;;;;5096158;28;19923;-75
2022/02/04 19:03:13;;;;;;;;;;;;;;;;;;5095520;28;19916;-75
2022/02/04 19:05:45;;;;;;;;;;;;;;;;;;5096964;28;19923;-75
2022/02/04 19:08:21;;;;;;;;;;;;;;;;;;5083262;28;19916;-75
2022/02/04 19:10:47;;;;;;;;;;;;;;;;;;5085246;28;20003;-74
2022/02/04 19:13:26;;;;;;;;;;;;;;;;;;5082441;28;19917;-73
2022/02/04 19:18:34;;;;;;;;;;;;;;;;;;5076070;28;19938;-74
2022/02/04 19:21:12;;;;;;;;;;;;;;;;;;5076376;28;19916;-74
2022/02/04 19:23:48;;;;;;;;;;;;;;;;;;5075269;28;19959;-74
2022/02/04 19:26:17;;;;;;;;;;;;;;;;;;5074723;28;19924;-74
2022/02/04 19:28:43;;;;;;;;;;;;;;;;;;5076312;28;19916;-74
2022/02/04 19:31:08;;;;;;;;;;;;;;;;;;5086937;28;19920;-74
2022/02/04 19:33:34;;;;;;;;;;;;;;;;;;5095688;28;20010;-74
2022/02/04 19:35:59;;;;;;;;;;;;;;;;;;5096353;28;19938;-74
2022/02/04 19:38:26;;;;;;;;;;;;;;;;;;5096498;28;19916;-74
2022/02/04 19:40:51;;;;;;;;;;;;;;;;;;5096293;28;19923;-74
2022/02/04 19:43:19;;;;;;;;;;;;;;;;;;5096422;28;19920;-74
2022/02/04 19:45:50;;;;;;;;;;;;;;;;;;5095289;28;19923;-74
2022/02/04 19:48:23;;;;;;;;;;;;;;;;;;5094957;28;19968;-74
2022/02/04 19:53:44;;;;;;;;;;;;;;;;;;5096188;28;19924;-74
2022/02/04 20:07:32;;;;;;;;;;;;;;;;;;5095836;28;19923;-75
2022/02/04 20:23:32;;;;;;;;;;;;;;;;;;5093405;28;19920;-73
2022/02/04 20:23:39;;;;;;;;;;;;;;;;;;5094112;28;20431;-74
2022/02/04 20:26:06;;;;;;;;;;;;;;;;;;5095431;28;19917;-74
2022/02/04 20:28:31;;;;;;;;;;;;;;;;;;5093664;28;20398;-74
2022/02/04 20:30:57;;;;;;;;;;;;;;;;;;5092623;28;19990;-74
2022/02/04 20:33:22;;;;;;;;;;;;;;;;;;5095420;28;19961;-74
2022/02/04 20:35:50;;;;;;;;;;;;;;;;;;5094105;28;19916;-74
2022/02/04 20:38:19;;;;;;;;;;;;;;;;;;5093934;28;19916;-74
2022/02/04 20:40:53;;;;;;;;;;;;;;;;;;5095189;28;19916;-74
2022/02/04 20:43:19;;;;;;;;;;;;;;;;;;5093759;28;20018;-74
2022/02/04 20:45:46;;;;;;;;;;;;;;;;;;5095178;28;19997;-74
2022/02/04 20:48:12;;;;;;;;;;;;;;;;;;5095028;28;19920;-74
2022/02/04 20:50:37;;;;;;;;;;;;;;;;;;5093715;28;19920;-74
2022/02/04 20:53:02;;;;;;;;;;;;;;;;;;5094889;28;19955;-74
2022/02/04 20:55:28;;;;;;;;;;;;;;;;;;5093659;28;19916;-74
2022/02/04 20:57:55;;;;;;;;;;;;;;;;;;5094751;28;19970;-74
2022/02/04 21:00:26;;;;;;;;;;;;;;;;;;5094820;28;19977;-74
2022/02/04 21:02:52;;;;;;;;;;;;;;;;;;5094959;28;19927;-74
2022/02/04 21:05:18;;;;;;;;;;;;;;;;;;5087090;28;19955;-74
2022/02/04 21:15:27;;;;;;;;;;;;;;;;;;5083557;28;20270;-74
2022/02/04 21:17:52;;;;;;;;;;;;;;;;;;5089136;28;19923;-74
2022/02/04 21:20:19;;;;;;;;;;;;;;;;;;5094597;28;19919;-74
2022/02/04 21:22:44;;;;;;;;;;;;;;;;;;5094435;28;19923;-74
2022/02/04 21:25:11;;;;;;;;;;;;;;;;;;5094256;28;19916;-74
2022/02/04 21:27:38;;;;;;;;;;;;;;;;;;5094314;28;20320;-74
2022/02/04 21:30:04;;;;;;;;;;;;;;;;;;5094371;28;19920;-75
2022/02/04 21:32:30;;;;;;;;;;;;;;;;;;5094346;28;19961;-74
2022/02/04 21:37:40;;;;;;;;;;;;;;;;;;5094189;28;19922;-74
2022/02/04 21:40:09;;;;;;;;;;;;;;;;;;5092833;28;19955;-74
2022/02/04 21:42:34;;;;;;;;;;;;;;;;;;5094176;28;19923;-74
2022/02/04 21:45:04;;;;;;;;;;;;;;;;;;5094185;28;19947;-74
2022/02/04 21:47:34;;;;;;;;;;;;;;;;;;5092635;28;19966;-74
2022/02/04 21:50:03;;;;;;;;;;;;;;;;;;5093429;28;20384;-74
2022/02/04 21:52:29;;;;;;;;;;;;;;;;;;5094111;28;19969;-74
2022/02/04 21:54:54;;;;;;;;;;;;;;;;;;5093790;28;19959;-73
2022/02/04 21:57:19;;;;;;;;;;;;;;;;;;5093527;28;19970;-74
2022/02/04 21:59:45;;;;;;;;;;;;;;;;;;5093844;28;20435;-74
2022/02/04 22:02:10;;;;;;;;;;;;;;;;;;5094005;28;19923;-74
2022/02/04 22:04:35;;;;;;;;;;;;;;;;;;5091533;28;19916;-74
2022/02/04 22:07:01;;;;;;;;;;;;;;;;;;5092668;28;19965;-74
2022/02/04 22:16:59;;;;;;;;;;;;;;;;;;5093819;28;19919;-74
2022/02/04 22:22:20;;;;;;;;;;;;;;;;;;5093931;28;19923;-73
2022/02/04 22:24:46;;;;;;;;;;;;;;;;;;5093939;28;20074;-73
2022/02/04 22:27:14;;;;;;;;;;;;;;;;;;5093679;28;20436;-73
2022/02/04 22:29:54;;;;;;;;;;;;;;;;;;5093404;28;20369;-73
2022/02/04 22:35:44;;;;;;;;;;;;;;;;;;5093775;28;20395;-74
2022/02/04 22:45:35;;;;;;;;;;;;;;;;;;5092529;28;19923;-73
2022/02/04 22:50:33;;;;;;;;;;;;;;;;;;5093284;28;19927;-74
2022/02/04 22:58:25;;;;;;;;;;;;;;;;;;5061566;28;19927;-74
2022/02/04 23:00:50;;;;;;;;;;;;;;;;;;5093127;28;19938;-73
2022/02/04 23:03:26;;;;;;;;;;;;;;;;;;5091368;28;20429;-73
2022/02/04 23:05:51;;;;;;;;;;;;;;;;;;5092153;28;19920;-73
2022/02/04 23:08:22;;;;;;;;;;;;;;;;;;5092863;28;19923;-73
2022/02/04 23:10:47;;;;;;;;;;;;;;;;;;5095325;28;19969;-73
2022/02/04 23:13:26;;;;;;;;;;;;;;;;;;5095597;28;19920;-73
2022/02/04 23:15:57;;;;;;;;;;;;;;;;;;5096972;28;19920;-73
2022/02/04 23:18:29;;;;;;;;;;;;;;;;;;5096836;28;19915;-73
2022/02/04 23:20:57;;;;;;;;;;;;;;;;;;5095594;28;20323;-74
2022/02/04 23:23:24;;;;;;;;;;;;;;;;;;5096570;28;20396;-74
2022/02/04 23:25:54;;;;;;;;;;;;;;;;;;5096689;28;19967;-73
2022/02/04 23:31:49;;;;;;;;;;;;;;;;;;5096470;28;20014;-73
2022/02/04 23:37:21;;;;;;;;;;;;;;;;;;5096157;28;19916;-74
2022/02/04 23:50:07;;;;;;;;;;;;;;;;;;5095545;28;19927;-73
2022/02/04 23:52:34;;;;;;;;;;;;;;;;;;5096177;28;19916;-74
2022/02/04 23:55:00;;;;;;;;;;;;;;;;;;5096020;28;19959;-74
2022/02/04 23:57:45;;;;;;;;;;;;;;;;;;5095052;28;20004;-74
